CheckWX is a tool to help pilots better visualize weather data.  It is not intended as a substitute for an official pre-flight weather briefing.

13:55:31 UTC

3F3 METAR
C E 'rusty' Williams Airport
Mansfield, Louisiana, USA
Current

21 mins ago

K3F3 261335Z AUTO 03010G16KT 10SM CLR 18/12 A3016 RMK AO2 T01800116
Observed
Apr-26 @ 13:35 UTC
Wind
  • 030° at 10 KTS
  • Gusting to 16 KTS
Visibility
10 SM
Flight Rules
VFR
Cloud Levels
  • Clear skies
Temperature
18°C / 64°F
Dewpoint
12°C / 54°F
Humidity
68%
Altimeter
30.16" Hg
Pressure
1021.32 hPa
Previous

41 mins ago

K3F3 261315Z AUTO 02012G19KT 10SM CLR 18/13 A3015 RMK AO2 T01760129
Observed
Apr-26 @ 13:15 UTC
Wind
  • 020° at 12 KTS
  • Gusting to 19 KTS
Visibility
10 SM
Flight Rules
VFR
Cloud Levels
  • Clear skies
Temperature
18°C / 64°F
Dewpoint
13°C / 55°F
Humidity
73%
Altimeter
30.15" Hg
Pressure
1021.02 hPa
Previous

1 hour ago

K3F3 261255Z AUTO 02008KT 10SM CLR 17/14 A3014 RMK AO2 T01720141
Observed
Apr-26 @ 12:55 UTC
Wind
  • 020° at 8 KTS
Visibility
10 SM
Flight Rules
VFR
Cloud Levels
  • Clear skies
Temperature
17°C / 63°F
Dewpoint
14°C / 57°F
Humidity
83%
Altimeter
30.14" Hg
Pressure
1020.62 hPa